sensor_id;sensor_type;location;lat;lon;timestamp;P1;durP1;ratioP1;P2;durP2;ratioP2
18820;SDS011;9539;59.332;18.034;2023-12-20T00:00:12;13.27;;;2.42;;
18820;SDS011;9539;59.332;18.034;2023-12-20T00:02:34;13.73;;;2.85;;
18820;SDS011;9539;59.332;18.034;2023-12-20T00:04:56;14.52;;;2.40;;
18820;SDS011;9539;59.332;18.034;2023-12-20T00:07:17;19.85;;;2.85;;
18820;SDS011;9539;59.332;18.034;2023-12-20T00:09:39;16.88;;;2.75;;
18820;SDS011;9539;59.332;18.034;2023-12-20T00:12:01;11.93;;;2.47;;
18820;SDS011;9539;59.332;18.034;2023-12-20T00:14:22;13.60;;;2.72;;
18820;SDS011;9539;59.332;18.034;2023-12-20T00:16:45;14.68;;;2.40;;
18820;SDS011;9539;59.332;18.034;2023-12-20T00:19:07;14.05;;;2.75;;
18820;SDS011;9539;59.332;18.034;2023-12-20T00:21:29;8.25;;;2.67;;
18820;SDS011;9539;59.332;18.034;2023-12-20T00:23:50;11.70;;;2.78;;
18820;SDS011;9539;59.332;18.034;2023-12-20T00:26:12;13.02;;;2.47;;
18820;SDS011;9539;59.332;18.034;2023-12-20T00:28:34;20.10;;;2.90;;
18820;SDS011;9539;59.332;18.034;2023-12-20T00:30:55;17.13;;;2.80;;
18820;SDS011;9539;59.332;18.034;2023-12-20T00:33:18;16.63;;;2.90;;
18820;SDS011;9539;59.332;18.034;2023-12-20T00:35:43;14.80;;;2.58;;
18820;SDS011;9539;59.332;18.034;2023-12-20T00:38:04;16.05;;;2.65;;
18820;SDS011;9539;59.332;18.034;2023-12-20T00:40:27;18.23;;;2.78;;
18820;SDS011;9539;59.332;18.034;2023-12-20T00:42:48;16.45;;;2.92;;
18820;SDS011;9539;59.332;18.034;2023-12-20T00:45:10;12.38;;;2.63;;
18820;SDS011;9539;59.332;18.034;2023-12-20T00:47:31;18.30;;;2.58;;
18820;SDS011;9539;59.332;18.034;2023-12-20T00:49:54;17.70;;;3.00;;
18820;SDS011;9539;59.332;18.034;2023-12-20T00:52:15;13.52;;;2.83;;
18820;SDS011;9539;59.332;18.034;2023-12-20T00:54:37;18.67;;;2.80;;
18820;SDS011;9539;59.332;18.034;2023-12-20T00:56:59;15.65;;;2.83;;
18820;SDS011;9539;59.332;18.034;2023-12-20T00:59:21;19.33;;;2.55;;
18820;SDS011;9539;59.332;18.034;2023-12-20T01:01:42;16.73;;;3.10;;
18820;SDS011;9539;59.332;18.034;2023-12-20T01:04:04;18.42;;;2.97;;
18820;SDS011;9539;59.332;18.034;2023-12-20T01:06:27;16.35;;;2.60;;
18820;SDS011;9539;59.332;18.034;2023-12-20T01:08:48;22.52;;;3.00;;
18820;SDS011;9539;59.332;18.034;2023-12-20T01:11:10;11.70;;;2.90;;
18820;SDS011;9539;59.332;18.034;2023-12-20T01:13:32;24.58;;;3.03;;
18820;SDS011;9539;59.332;18.034;2023-12-20T01:15:54;22.67;;;3.08;;
18820;SDS011;9539;59.332;18.034;2023-12-20T01:18:15;19.45;;;2.90;;
18820;SDS011;9539;59.332;18.034;2023-12-20T01:20:36;18.02;;;3.10;;
18820;SDS011;9539;59.332;18.034;2023-12-20T01:22:59;21.52;;;3.05;;
18820;SDS011;9539;59.332;18.034;2023-12-20T01:25:21;20.45;;;2.67;;
18820;SDS011;9539;59.332;18.034;2023-12-20T01:27:43;17.52;;;2.83;;
18820;SDS011;9539;59.332;18.034;2023-12-20T01:30:05;16.83;;;3.40;;
18820;SDS011;9539;59.332;18.034;2023-12-20T01:32:26;20.00;;;2.83;;
18820;SDS011;9539;59.332;18.034;2023-12-20T01:34:48;17.98;;;2.67;;
18820;SDS011;9539;59.332;18.034;2023-12-20T01:37:09;22.90;;;3.05;;
18820;SDS011;9539;59.332;18.034;2023-12-20T01:39:32;13.35;;;2.53;;
18820;SDS011;9539;59.332;18.034;2023-12-20T01:41:54;16.92;;;2.47;;
18820;SDS011;9539;59.332;18.034;2023-12-20T01:44:15;19.40;;;2.85;;
18820;SDS011;9539;59.332;18.034;2023-12-20T01:46:37;19.50;;;3.00;;
18820;SDS011;9539;59.332;18.034;2023-12-20T01:48:59;22.20;;;3.20;;
18820;SDS011;9539;59.332;18.034;2023-12-20T01:51:21;15.38;;;2.90;;
18820;SDS011;9539;59.332;18.034;2023-12-20T01:53:43;24.25;;;2.90;;
18820;SDS011;9539;59.332;18.034;2023-12-20T01:56:06;19.73;;;3.03;;
18820;SDS011;9539;59.332;18.034;2023-12-20T01:58:28;18.48;;;3.20;;
18820;SDS011;9539;59.332;18.034;2023-12-20T02:00:50;19.88;;;2.97;;
18820;SDS011;9539;59.332;18.034;2023-12-20T02:03:11;19.75;;;2.75;;
18820;SDS011;9539;59.332;18.034;2023-12-20T02:05:33;17.10;;;2.70;;
18820;SDS011;9539;59.332;18.034;2023-12-20T02:07:56;21.08;;;3.30;;
18820;SDS011;9539;59.332;18.034;2023-12-20T02:10:18;17.70;;;2.40;;
18820;SDS011;9539;59.332;18.034;2023-12-20T02:12:42;21.10;;;3.15;;
18820;SDS011;9539;59.332;18.034;2023-12-20T02:15:04;20.15;;;2.90;;
18820;SDS011;9539;59.332;18.034;2023-12-20T02:17:26;17.15;;;2.80;;
18820;SDS011;9539;59.332;18.034;2023-12-20T02:19:49;15.82;;;2.60;;
18820;SDS011;9539;59.332;18.034;2023-12-20T02:22:12;21.25;;;3.00;;
18820;SDS011;9539;59.332;18.034;2023-12-20T02:24:34;14.02;;;2.63;;
18820;SDS011;9539;59.332;18.034;2023-12-20T02:26:56;18.42;;;3.10;;
18820;SDS011;9539;59.332;18.034;2023-12-20T02:29:18;17.50;;;3.45;;
18820;SDS011;9539;59.332;18.034;2023-12-20T02:31:40;24.00;;;2.90;;
18820;SDS011;9539;59.332;18.034;2023-12-20T02:34:05;16.70;;;3.28;;
18820;SDS011;9539;59.332;18.034;2023-12-20T02:36:27;23.30;;;2.83;;
18820;SDS011;9539;59.332;18.034;2023-12-20T02:38:50;15.90;;;3.17;;
18820;SDS011;9539;59.332;18.034;2023-12-20T02:41:12;20.50;;;2.88;;
18820;SDS011;9539;59.332;18.034;2023-12-20T02:43:37;17.40;;;2.72;;
18820;SDS011;9539;59.332;18.034;2023-12-20T02:45:59;20.05;;;2.40;;
18820;SDS011;9539;59.332;18.034;2023-12-20T02:48:21;24.77;;;3.63;;
18820;SDS011;9539;59.332;18.034;2023-12-20T02:50:43;22.05;;;3.20;;
18820;SDS011;9539;59.332;18.034;2023-12-20T02:53:04;17.00;;;2.88;;
18820;SDS011;9539;59.332;18.034;2023-12-20T02:55:28;17.77;;;3.50;;
18820;SDS011;9539;59.332;18.034;2023-12-20T02:57:50;17.30;;;2.85;;
18820;SDS011;9539;59.332;18.034;2023-12-20T03:00:12;13.18;;;2.67;;
18820;SDS011;9539;59.332;18.034;2023-12-20T03:02:32;14.77;;;2.40;;
18820;SDS011;9539;59.332;18.034;2023-12-20T03:04:54;12.43;;;2.10;;
18820;SDS011;9539;59.332;18.034;2023-12-20T03:07:16;23.35;;;2.95;;
18820;SDS011;9539;59.332;18.034;2023-12-20T03:09:38;21.27;;;2.97;;
18820;SDS011;9539;59.332;18.034;2023-12-20T03:12:04;23.42;;;3.20;;
18820;SDS011;9539;59.332;18.034;2023-12-20T03:14:26;19.42;;;2.58;;
18820;SDS011;9539;59.332;18.034;2023-12-20T03:16:49;17.02;;;2.80;;
18820;SDS011;9539;59.332;18.034;2023-12-20T03:19:11;20.30;;;2.55;;
18820;SDS011;9539;59.332;18.034;2023-12-20T03:21:32;18.05;;;2.97;;
18820;SDS011;9539;59.332;18.034;2023-12-20T03:23:54;13.70;;;2.42;;
18820;SDS011;9539;59.332;18.034;2023-12-20T03:26:16;16.20;;;3.10;;
18820;SDS011;9539;59.332;18.034;2023-12-20T03:28:40;19.25;;;2.85;;
18820;SDS011;9539;59.332;18.034;2023-12-20T03:31:02;10.48;;;2.42;;
18820;SDS011;9539;59.332;18.034;2023-12-20T03:33:24;17.63;;;2.83;;
18820;SDS011;9539;59.332;18.034;2023-12-20T03:35:46;20.30;;;3.20;;
18820;SDS011;9539;59.332;18.034;2023-12-20T03:38:08;13.13;;;2.97;;
18820;SDS011;9539;59.332;18.034;2023-12-20T03:40:29;20.08;;;2.78;;
18820;SDS011;9539;59.332;18.034;2023-12-20T03:42:52;17.00;;;2.78;;
18820;SDS011;9539;59.332;18.034;2023-12-20T03:45:15;15.25;;;3.33;;
18820;SDS011;9539;59.332;18.034;2023-12-20T03:47:37;16.60;;;2.60;;
18820;SDS011;9539;59.332;18.034;2023-12-20T03:50:00;13.23;;;2.67;;
18820;SDS011;9539;59.332;18.034;2023-12-20T03:52:22;14.52;;;2.50;;
18820;SDS011;9539;59.332;18.034;2023-12-20T03:54:44;11.63;;;2.80;;
18820;SDS011;9539;59.332;18.034;2023-12-20T03:57:06;10.55;;;2.75;;
18820;SDS011;9539;59.332;18.034;2023-12-20T03:59:27;13.88;;;2.85;;
18820;SDS011;9539;59.332;18.034;2023-12-20T04:01:50;16.63;;;2.53;;
18820;SDS011;9539;59.332;18.034;2023-12-20T04:04:12;14.18;;;2.88;;
18820;SDS011;9539;59.332;18.034;2023-12-20T04:06:34;13.13;;;2.78;;
18820;SDS011;9539;59.332;18.034;2023-12-20T04:08:56;14.23;;;2.70;;
18820;SDS011;9539;59.332;18.034;2023-12-20T04:11:17;14.93;;;2.60;;
18820;SDS011;9539;59.332;18.034;2023-12-20T04:13:39;17.25;;;2.70;;
18820;SDS011;9539;59.332;18.034;2023-12-20T04:16:01;11.23;;;2.42;;
18820;SDS011;9539;59.332;18.034;2023-12-20T04:18:24;15.73;;;2.97;;
18820;SDS011;9539;59.332;18.034;2023-12-20T04:20:46;11.80;;;2.65;;
18820;SDS011;9539;59.332;18.034;2023-12-20T04:23:09;16.40;;;2.90;;
18820;SDS011;9539;59.332;18.034;2023-12-20T04:25:31;16.35;;;2.80;;
18820;SDS011;9539;59.332;18.034;2023-12-20T04:27:53;13.95;;;2.55;;
18820;SDS011;9539;59.332;18.034;2023-12-20T04:30:14;12.98;;;2.60;;
18820;SDS011;9539;59.332;18.034;2023-12-20T04:32:36;12.27;;;2.75;;
18820;SDS011;9539;59.332;18.034;2023-12-20T04:34:59;17.20;;;3.13;;
18820;SDS011;9539;59.332;18.034;2023-12-20T04:37:21;10.50;;;2.40;;
18820;SDS011;9539;59.332;18.034;2023-12-20T04:39:43;14.35;;;2.67;;
18820;SDS011;9539;59.332;18.034;2023-12-20T04:42:05;13.20;;;2.58;;
18820;SDS011;9539;59.332;18.034;2023-12-20T04:44:26;11.00;;;2.50;;
18820;SDS011;9539;59.332;18.034;2023-12-20T04:46:48;8.73;;;2.58;;
18820;SDS011;9539;59.332;18.034;2023-12-20T04:49:10;12.45;;;2.47;;
18820;SDS011;9539;59.332;18.034;2023-12-20T04:51:34;16.13;;;2.80;;
18820;SDS011;9539;59.332;18.034;2023-12-20T04:53:56;11.80;;;2.63;;
18820;SDS011;9539;59.332;18.034;2023-12-20T04:56:18;9.55;;;3.00;;
18820;SDS011;9539;59.332;18.034;2023-12-20T04:58:39;13.70;;;3.08;;
18820;SDS011;9539;59.332;18.034;2023-12-20T05:01:01;15.35;;;2.88;;
18820;SDS011;9539;59.332;18.034;2023-12-20T05:03:23;19.30;;;2.85;;
18820;SDS011;9539;59.332;18.034;2023-12-20T05:05:45;12.43;;;2.85;;
18820;SDS011;9539;59.332;18.034;2023-12-20T05:08:08;13.68;;;2.72;;
18820;SDS011;9539;59.332;18.034;2023-12-20T05:10:30;11.73;;;3.10;;
18820;SDS011;9539;59.332;18.034;2023-12-20T05:12:52;10.43;;;3.13;;
18820;SDS011;9539;59.332;18.034;2023-12-20T05:15:13;17.60;;;2.90;;
18820;SDS011;9539;59.332;18.034;2023-12-20T05:17:35;10.18;;;2.90;;
18820;SDS011;9539;59.332;18.034;2023-12-20T05:19:57;12.48;;;3.00;;
18820;SDS011;9539;59.332;18.034;2023-12-20T05:22:19;6.90;;;2.50;;
18820;SDS011;9539;59.332;18.034;2023-12-20T05:24:42;13.20;;;2.80;;
18820;SDS011;9539;59.332;18.034;2023-12-20T05:27:04;10.55;;;2.65;;
18820;SDS011;9539;59.332;18.034;2023-12-20T05:29:26;9.40;;;2.80;;
18820;SDS011;9539;59.332;18.034;2023-12-20T05:31:47;10.63;;;2.63;;
18820;SDS011;9539;59.332;18.034;2023-12-20T05:34:09;17.58;;;3.13;;
18820;SDS011;9539;59.332;18.034;2023-12-20T05:36:31;14.20;;;2.83;;
18820;SDS011;9539;59.332;18.034;2023-12-20T05:38:53;19.63;;;3.38;;
18820;SDS011;9539;59.332;18.034;2023-12-20T05:41:16;14.93;;;2.95;;
18820;SDS011;9539;59.332;18.034;2023-12-20T05:43:38;12.00;;;3.08;;
18820;SDS011;9539;59.332;18.034;2023-12-20T05:46:00;11.90;;;2.78;;
18820;SDS011;9539;59.332;18.034;2023-12-20T05:48:22;12.02;;;2.80;;
18820;SDS011;9539;59.332;18.034;2023-12-20T05:50:42;10.77;;;3.00;;
18820;SDS011;9539;59.332;18.034;2023-12-20T05:53:04;15.32;;;2.83;;
18820;SDS011;9539;59.332;18.034;2023-12-20T05:55:26;12.75;;;3.10;;
18820;SDS011;9539;59.332;18.034;2023-12-20T05:57:49;8.20;;;3.10;;
18820;SDS011;9539;59.332;18.034;2023-12-20T06:00:12;12.85;;;3.00;;
18820;SDS011;9539;59.332;18.034;2023-12-20T06:02:34;11.48;;;3.00;;
18820;SDS011;9539;59.332;18.034;2023-12-20T06:04:56;13.68;;;3.08;;
18820;SDS011;9539;59.332;18.034;2023-12-20T06:07:19;16.98;;;2.80;;
18820;SDS011;9539;59.332;18.034;2023-12-20T06:09:41;14.25;;;2.80;;
18820;SDS011;9539;59.332;18.034;2023-12-20T06:12:03;16.27;;;3.15;;
18820;SDS011;9539;59.332;18.034;2023-12-20T06:14:26;15.63;;;3.63;;
18820;SDS011;9539;59.332;18.034;2023-12-20T06:16:48;15.80;;;3.30;;
18820;SDS011;9539;59.332;18.034;2023-12-20T06:19:10;14.68;;;3.47;;
18820;SDS011;9539;59.332;18.034;2023-12-20T06:21:32;13.43;;;3.78;;
18820;SDS011;9539;59.332;18.034;2023-12-20T06:23:54;11.15;;;3.67;;
18820;SDS011;9539;59.332;18.034;2023-12-20T06:26:16;9.98;;;2.83;;
18820;SDS011;9539;59.332;18.034;2023-12-20T06:28:38;15.98;;;3.38;;
18820;SDS011;9539;59.332;18.034;2023-12-20T06:31:02;11.65;;;3.40;;
18820;SDS011;9539;59.332;18.034;2023-12-20T06:33:24;19.45;;;4.18;;
18820;SDS011;9539;59.332;18.034;2023-12-20T06:35:45;18.50;;;4.45;;
18820;SDS011;9539;59.332;18.034;2023-12-20T06:38:08;28.60;;;4.13;;
18820;SDS011;9539;59.332;18.034;2023-12-20T06:40:30;26.75;;;4.10;;
18820;SDS011;9539;59.332;18.034;2023-12-20T06:42:52;23.02;;;4.10;;
18820;SDS011;9539;59.332;18.034;2023-12-20T06:45:14;19.75;;;4.38;;
18820;SDS011;9539;59.332;18.034;2023-12-20T06:47:38;51.08;;;5.63;;
18820;SDS011;9539;59.332;18.034;2023-12-20T06:50:00;40.00;;;5.40;;
18820;SDS011;9539;59.332;18.034;2023-12-20T06:52:22;42.83;;;5.55;;
18820;SDS011;9539;59.332;18.034;2023-12-20T06:54:44;28.40;;;4.97;;
18820;SDS011;9539;59.332;18.034;2023-12-20T06:57:06;23.20;;;6.05;;
18820;SDS011;9539;59.332;18.034;2023-12-20T06:59:28;38.70;;;7.30;;
18820;SDS011;9539;59.332;18.034;2023-12-20T07:01:49;29.48;;;8.75;;
18820;SDS011;9539;59.332;18.034;2023-12-20T07:04:13;39.47;;;10.13;;
18820;SDS011;9539;59.332;18.034;2023-12-20T07:06:34;30.80;;;8.52;;
18820;SDS011;9539;59.332;18.034;2023-12-20T07:08:56;30.80;;;8.63;;
18820;SDS011;9539;59.332;18.034;2023-12-20T07:11:18;28.90;;;8.55;;
18820;SDS011;9539;59.332;18.034;2023-12-20T07:13:40;29.42;;;8.25;;
18820;SDS011;9539;59.332;18.034;2023-12-20T07:16:02;28.60;;;8.27;;
18820;SDS011;9539;59.332;18.034;2023-12-20T07:18:24;33.63;;;7.60;;
18820;SDS011;9539;59.332;18.034;2023-12-20T07:20:50;30.88;;;8.20;;
18820;SDS011;9539;59.332;18.034;2023-12-20T07:23:12;34.22;;;7.65;;
18820;SDS011;9539;59.332;18.034;2023-12-20T07:25:34;38.88;;;8.40;;
18820;SDS011;9539;59.332;18.034;2023-12-20T07:27:56;37.70;;;9.85;;
18820;SDS011;9539;59.332;18.034;2023-12-20T07:30:17;52.17;;;10.52;;
18820;SDS011;9539;59.332;18.034;2023-12-20T07:32:39;37.03;;;9.80;;
18820;SDS011;9539;59.332;18.034;2023-12-20T07:35:01;39.28;;;9.90;;
18820;SDS011;9539;59.332;18.034;2023-12-20T07:37:24;50.72;;;11.95;;
18820;SDS011;9539;59.332;18.034;2023-12-20T07:39:46;42.35;;;10.88;;
18820;SDS011;9539;59.332;18.034;2023-12-20T07:42:08;45.85;;;11.32;;
18820;SDS011;9539;59.332;18.034;2023-12-20T07:44:30;40.75;;;9.55;;
18820;SDS011;9539;59.332;18.034;2023-12-20T07:46:51;33.45;;;9.57;;
18820;SDS011;9539;59.332;18.034;2023-12-20T07:49:13;36.22;;;9.05;;
18820;SDS011;9539;59.332;18.034;2023-12-20T07:51:35;37.92;;;9.40;;
18820;SDS011;9539;59.332;18.034;2023-12-20T07:53:59;31.45;;;9.93;;
18820;SDS011;9539;59.332;18.034;2023-12-20T07:56:20;28.38;;;8.27;;
18820;SDS011;9539;59.332;18.034;2023-12-20T07:58:42;28.02;;;8.50;;
18820;SDS011;9539;59.332;18.034;2023-12-20T08:01:04;15.32;;;6.00;;
18820;SDS011;9539;59.332;18.034;2023-12-20T08:03:25;26.83;;;7.80;;
18820;SDS011;9539;59.332;18.034;2023-12-20T08:05:47;27.15;;;7.40;;
18820;SDS011;9539;59.332;18.034;2023-12-20T08:08:09;25.83;;;7.10;;
18820;SDS011;9539;59.332;18.034;2023-12-20T08:10:32;22.98;;;6.68;;
18820;SDS011;9539;59.332;18.034;2023-12-20T08:12:53;19.75;;;7.20;;
18820;SDS011;9539;59.332;18.034;2023-12-20T08:15:14;19.25;;;6.40;;
18820;SDS011;9539;59.332;18.034;2023-12-20T08:17:36;24.17;;;6.72;;
18820;SDS011;9539;59.332;18.034;2023-12-20T08:19:57;29.33;;;6.95;;
18820;SDS011;9539;59.332;18.034;2023-12-20T08:22:20;26.05;;;6.30;;
18820;SDS011;9539;59.332;18.034;2023-12-20T08:24:42;18.35;;;5.45;;
18820;SDS011;9539;59.332;18.034;2023-12-20T08:27:05;25.45;;;6.18;;
18820;SDS011;9539;59.332;18.034;2023-12-20T08:29:27;27.05;;;6.50;;
18820;SDS011;9539;59.332;18.034;2023-12-20T08:31:51;14.98;;;5.93;;
18820;SDS011;9539;59.332;18.034;2023-12-20T08:34:13;20.60;;;5.65;;
18820;SDS011;9539;59.332;18.034;2023-12-20T08:36:35;25.90;;;6.03;;
18820;SDS011;9539;59.332;18.034;2023-12-20T08:38:57;21.95;;;5.47;;
18820;SDS011;9539;59.332;18.034;2023-12-20T08:41:20;24.63;;;5.88;;
18820;SDS011;9539;59.332;18.034;2023-12-20T08:43:43;20.20;;;5.65;;
18820;SDS011;9539;59.332;18.034;2023-12-20T08:46:05;24.75;;;6.03;;
18820;SDS011;9539;59.332;18.034;2023-12-20T08:48:27;23.70;;;6.97;;
18820;SDS011;9539;59.332;18.034;2023-12-20T08:50:49;29.70;;;6.88;;
18820;SDS011;9539;59.332;18.034;2023-12-20T08:53:12;23.25;;;6.97;;
18820;SDS011;9539;59.332;18.034;2023-12-20T08:55:44;27.48;;;7.03;;
18820;SDS011;9539;59.332;18.034;2023-12-20T08:58:06;17.40;;;6.03;;
18820;SDS011;9539;59.332;18.034;2023-12-20T09:00:28;23.23;;;6.03;;
18820;SDS011;9539;59.332;18.034;2023-12-20T09:02:50;20.55;;;6.28;;
18820;SDS011;9539;59.332;18.034;2023-12-20T09:05:12;18.48;;;5.95;;
18820;SDS011;9539;59.332;18.034;2023-12-20T09:07:35;13.73;;;6.15;;
18820;SDS011;9539;59.332;18.034;2023-12-20T09:09:57;20.27;;;5.50;;
18820;SDS011;9539;59.332;18.034;2023-12-20T09:12:21;16.20;;;4.88;;
18820;SDS011;9539;59.332;18.034;2023-12-20T09:14:43;20.77;;;5.60;;
18820;SDS011;9539;59.332;18.034;2023-12-20T09:17:07;21.00;;;5.32;;
18820;SDS011;9539;59.332;18.034;2023-12-20T09:19:31;11.57;;;4.10;;
18820;SDS011;9539;59.332;18.034;2023-12-20T09:21:53;21.25;;;5.43;;
18820;SDS011;9539;59.332;18.034;2023-12-20T09:24:15;15.45;;;4.40;;
18820;SDS011;9539;59.332;18.034;2023-12-20T09:26:38;13.05;;;4.32;;
18820;SDS011;9539;59.332;18.034;2023-12-20T09:29:01;13.27;;;4.90;;
18820;SDS011;9539;59.332;18.034;2023-12-20T09:31:23;17.30;;;5.00;;
18820;SDS011;9539;59.332;18.034;2023-12-20T09:33:45;15.18;;;4.40;;
18820;SDS011;9539;59.332;18.034;2023-12-20T09:36:07;18.38;;;4.88;;
18820;SDS011;9539;59.332;18.034;2023-12-20T09:38:29;16.25;;;3.95;;
18820;SDS011;9539;59.332;18.034;2023-12-20T09:40:51;18.67;;;4.32;;
18820;SDS011;9539;59.332;18.034;2023-12-20T09:43:14;19.55;;;4.22;;
18820;SDS011;9539;59.332;18.034;2023-12-20T09:45:38;14.00;;;3.83;;
18820;SDS011;9539;59.332;18.034;2023-12-20T09:48:02;11.95;;;4.00;;
18820;SDS011;9539;59.332;18.034;2023-12-20T09:50:25;16.27;;;4.68;;
18820;SDS011;9539;59.332;18.034;2023-12-20T09:52:49;18.17;;;4.45;;
18820;SDS011;9539;59.332;18.034;2023-12-20T09:55:13;16.70;;;4.07;;
18820;SDS011;9539;59.332;18.034;2023-12-20T09:57:36;11.32;;;3.80;;
18820;SDS011;9539;59.332;18.034;2023-12-20T09:59:58;16.35;;;3.78;;
18820;SDS011;9539;59.332;18.034;2023-12-20T10:02:22;11.25;;;3.88;;
18820;SDS011;9539;59.332;18.034;2023-12-20T10:04:47;15.00;;;3.92;;
18820;SDS011;9539;59.332;18.034;2023-12-20T10:07:09;15.18;;;4.30;;
18820;SDS011;9539;59.332;18.034;2023-12-20T10:09:32;15.45;;;3.97;;
18820;SDS011;9539;59.332;18.034;2023-12-20T10:11:54;13.93;;;3.90;;
18820;SDS011;9539;59.332;18.034;2023-12-20T10:14:17;14.80;;;3.80;;
18820;SDS011;9539;59.332;18.034;2023-12-20T10:16:40;14.98;;;4.40;;
18820;SDS011;9539;59.332;18.034;2023-12-20T10:19:04;16.73;;;4.05;;
18820;SDS011;9539;59.332;18.034;2023-12-20T10:21:26;14.02;;;4.18;;
18820;SDS011;9539;59.332;18.034;2023-12-20T10:23:48;16.90;;;3.92;;
18820;SDS011;9539;59.332;18.034;2023-12-20T10:26:11;16.02;;;3.78;;
18820;SDS011;9539;59.332;18.034;2023-12-20T10:28:41;12.23;;;3.55;;
18820;SDS011;9539;59.332;18.034;2023-12-20T10:31:03;12.27;;;3.83;;
18820;SDS011;9539;59.332;18.034;2023-12-20T10:33:25;16.73;;;3.92;;
18820;SDS011;9539;59.332;18.034;2023-12-20T10:35:50;17.73;;;4.18;;
18820;SDS011;9539;59.332;18.034;2023-12-20T10:38:12;16.55;;;4.05;;
18820;SDS011;9539;59.332;18.034;2023-12-20T10:40:35;14.32;;;4.40;;
18820;SDS011;9539;59.332;18.034;2023-12-20T10:42:57;13.75;;;4.53;;
18820;SDS011;9539;59.332;18.034;2023-12-20T10:45:21;13.40;;;4.10;;
18820;SDS011;9539;59.332;18.034;2023-12-20T10:47:44;12.63;;;3.50;;
18820;SDS011;9539;59.332;18.034;2023-12-20T10:50:08;14.48;;;4.22;;
18820;SDS011;9539;59.332;18.034;2023-12-20T10:52:32;16.55;;;4.05;;
18820;SDS011;9539;59.332;18.034;2023-12-20T10:54:56;14.90;;;4.07;;
18820;SDS011;9539;59.332;18.034;2023-12-20T10:57:18;9.75;;;3.53;;
18820;SDS011;9539;59.332;18.034;2023-12-20T10:59:40;10.45;;;3.60;;
18820;SDS011;9539;59.332;18.034;2023-12-20T11:02:06;15.35;;;4.00;;
18820;SDS011;9539;59.332;18.034;2023-12-20T11:04:28;14.45;;;3.42;;
18820;SDS011;9539;59.332;18.034;2023-12-20T11:06:58;13.20;;;3.50;;
18820;SDS011;9539;59.332;18.034;2023-12-20T11:09:31;13.43;;;3.75;;
18820;SDS011;9539;59.332;18.034;2023-12-20T11:12:01;13.88;;;3.10;;
18820;SDS011;9539;59.332;18.034;2023-12-20T11:14:27;11.02;;;3.53;;
18820;SDS011;9539;59.332;18.034;2023-12-20T11:17:06;9.98;;;2.92;;
18820;SDS011;9539;59.332;18.034;2023-12-20T11:19:29;15.57;;;3.70;;
18820;SDS011;9539;59.332;18.034;2023-12-20T11:21:51;15.25;;;3.55;;
18820;SDS011;9539;59.332;18.034;2023-12-20T11:24:13;13.60;;;3.53;;
18820;SDS011;9539;59.332;18.034;2023-12-20T11:26:38;13.57;;;3.13;;
18820;SDS011;9539;59.332;18.034;2023-12-20T11:31:56;9.48;;;2.90;;
18820;SDS011;9539;59.332;18.034;2023-12-20T11:34:18;14.90;;;3.25;;
18820;SDS011;9539;59.332;18.034;2023-12-20T11:36:40;10.07;;;2.47;;
18820;SDS011;9539;59.332;18.034;2023-12-20T11:39:02;7.63;;;2.78;;
18820;SDS011;9539;59.332;18.034;2023-12-20T11:41:29;8.05;;;2.75;;
18820;SDS011;9539;59.332;18.034;2023-12-20T11:43:53;6.68;;;2.78;;
18820;SDS011;9539;59.332;18.034;2023-12-20T11:46:16;7.07;;;2.97;;
18820;SDS011;9539;59.332;18.034;2023-12-20T11:48:38;11.65;;;2.88;;
18820;SDS011;9539;59.332;18.034;2023-12-20T11:51:01;9.55;;;2.88;;
18820;SDS011;9539;59.332;18.034;2023-12-20T11:53:24;9.98;;;3.22;;
18820;SDS011;9539;59.332;18.034;2023-12-20T11:55:47;6.63;;;2.53;;
18820;SDS011;9539;59.332;18.034;2023-12-20T11:58:09;9.73;;;3.00;;
18820;SDS011;9539;59.332;18.034;2023-12-20T12:00:33;6.63;;;2.63;;
18820;SDS011;9539;59.332;18.034;2023-12-20T12:02:56;6.07;;;2.65;;
18820;SDS011;9539;59.332;18.034;2023-12-20T12:05:19;10.13;;;3.00;;
18820;SDS011;9539;59.332;18.034;2023-12-20T12:07:42;5.05;;;2.42;;
18820;SDS011;9539;59.332;18.034;2023-12-20T12:10:04;9.90;;;2.80;;
18820;SDS011;9539;59.332;18.034;2023-12-20T12:12:28;6.65;;;2.50;;
18820;SDS011;9539;59.332;18.034;2023-12-20T12:14:51;6.88;;;2.78;;
18820;SDS011;9539;59.332;18.034;2023-12-20T12:17:14;5.97;;;2.60;;
18820;SDS011;9539;59.332;18.034;2023-12-20T12:19:37;11.88;;;2.78;;
18820;SDS011;9539;59.332;18.034;2023-12-20T12:22:09;9.35;;;2.85;;
18820;SDS011;9539;59.332;18.034;2023-12-20T12:24:33;6.10;;;2.13;;
18820;SDS011;9539;59.332;18.034;2023-12-20T12:26:57;7.47;;;2.15;;
18820;SDS011;9539;59.332;18.034;2023-12-20T12:29:19;5.70;;;2.20;;
18820;SDS011;9539;59.332;18.034;2023-12-20T12:31:41;3.28;;;1.88;;
18820;SDS011;9539;59.332;18.034;2023-12-20T12:34:04;4.30;;;2.20;;
18820;SDS011;9539;59.332;18.034;2023-12-20T12:36:29;4.70;;;1.85;;
18820;SDS011;9539;59.332;18.034;2023-12-20T12:38:51;3.10;;;2.00;;
18820;SDS011;9539;59.332;18.034;2023-12-20T12:41:13;3.85;;;1.90;;
18820;SDS011;9539;59.332;18.034;2023-12-20T12:43:36;5.00;;;1.70;;
18820;SDS011;9539;59.332;18.034;2023-12-20T12:45:58;4.57;;;2.35;;
18820;SDS011;9539;59.332;18.034;2023-12-20T12:48:21;5.00;;;2.45;;
18820;SDS011;9539;59.332;18.034;2023-12-20T12:50:44;3.10;;;2.00;;
18820;SDS011;9539;59.332;18.034;2023-12-20T12:53:07;5.68;;;2.25;;
18820;SDS011;9539;59.332;18.034;2023-12-20T12:55:29;4.78;;;2.40;;
18820;SDS011;9539;59.332;18.034;2023-12-20T12:57:50;5.35;;;2.50;;
18820;SDS011;9539;59.332;18.034;2023-12-20T13:00:13;4.22;;;2.10;;
18820;SDS011;9539;59.332;18.034;2023-12-20T13:02:35;4.28;;;2.28;;
18820;SDS011;9539;59.332;18.034;2023-12-20T13:04:58;7.38;;;2.97;;
18820;SDS011;9539;59.332;18.034;2023-12-20T13:07:22;3.95;;;2.42;;
18820;SDS011;9539;59.332;18.034;2023-12-20T13:09:44;3.25;;;2.33;;
18820;SDS011;9539;59.332;18.034;2023-12-20T13:12:06;5.40;;;2.22;;
18820;SDS011;9539;59.332;18.034;2023-12-20T13:14:29;4.32;;;2.30;;
18820;SDS011;9539;59.332;18.034;2023-12-20T13:16:53;3.70;;;2.30;;
18820;SDS011;9539;59.332;18.034;2023-12-20T13:19:16;3.40;;;2.30;;
18820;SDS011;9539;59.332;18.034;2023-12-20T13:21:38;6.63;;;2.40;;
18820;SDS011;9539;59.332;18.034;2023-12-20T13:24:02;3.00;;;2.22;;
18820;SDS011;9539;59.332;18.034;2023-12-20T13:26:24;6.38;;;2.33;;
18820;SDS011;9539;59.332;18.034;2023-12-20T13:28:47;3.08;;;2.10;;
18820;SDS011;9539;59.332;18.034;2023-12-20T13:31:09;6.70;;;2.00;;
18820;SDS011;9539;59.332;18.034;2023-12-20T13:33:30;3.70;;;2.10;;
18820;SDS011;9539;59.332;18.034;2023-12-20T13:35:52;6.68;;;2.13;;
18820;SDS011;9539;59.332;18.034;2023-12-20T13:38:16;6.68;;;2.55;;
18820;SDS011;9539;59.332;18.034;2023-12-20T13:40:39;2.92;;;2.13;;
18820;SDS011;9539;59.332;18.034;2023-12-20T13:43:02;8.43;;;2.40;;
18820;SDS011;9539;59.332;18.034;2023-12-20T13:45:24;8.20;;;2.45;;
18820;SDS011;9539;59.332;18.034;2023-12-20T13:47:46;4.22;;;2.30;;
18820;SDS011;9539;59.332;18.034;2023-12-20T13:50:09;7.22;;;2.55;;
18820;SDS011;9539;59.332;18.034;2023-12-20T13:52:31;6.30;;;2.88;;
18820;SDS011;9539;59.332;18.034;2023-12-20T13:54:53;5.90;;;2.33;;
18820;SDS011;9539;59.332;18.034;2023-12-20T13:57:17;8.10;;;2.80;;
18820;SDS011;9539;59.332;18.034;2023-12-20T13:59:39;7.45;;;2.90;;
18820;SDS011;9539;59.332;18.034;2023-12-20T14:02:01;11.45;;;2.70;;
18820;SDS011;9539;59.332;18.034;2023-12-20T14:04:23;14.18;;;3.05;;
18820;SDS011;9539;59.332;18.034;2023-12-20T14:06:45;6.72;;;2.63;;
18820;SDS011;9539;59.332;18.034;2023-12-20T14:09:07;8.68;;;3.20;;